sensor_id;sensor_type;location;lat;lon;timestamp;temperature;humidity
6210;DHT22;3138;52.550;13.148;2022-09-09T00:01:23;12.80;99.90
6210;DHT22;3138;52.550;13.148;2022-09-09T00:03:57;12.60;99.90
6210;DHT22;3138;52.550;13.148;2022-09-09T00:06:30;12.60;99.90
6210;DHT22;3138;52.550;13.148;2022-09-09T00:09:04;12.50;99.90
6210;DHT22;3138;52.550;13.148;2022-09-09T00:11:39;12.60;99.90
6210;DHT22;3138;52.550;13.148;2022-09-09T00:14:18;12.50;99.90
6210;DHT22;3138;52.550;13.148;2022-09-09T00:16:54;12.50;99.90
6210;DHT22;3138;52.550;13.148;2022-09-09T00:19:27;12.60;99.90
6210;DHT22;3138;52.550;13.148;2022-09-09T00:22:04;12.50;99.90
6210;DHT22;3138;52.550;13.148;2022-09-09T00:24:38;12.50;99.90
6210;DHT22;3138;52.550;13.148;2022-09-09T00:27:11;12.50;99.90
6210;DHT22;3138;52.550;13.148;2022-09-09T00:29:43;12.40;99.90
6210;DHT22;3138;52.550;13.148;2022-09-09T00:32:14;12.30;99.90
6210;DHT22;3138;52.550;13.148;2022-09-09T00:34:47;12.40;99.90
6210;DHT22;3138;52.550;13.148;2022-09-09T00:37:15;12.40;99.90
6210;DHT22;3138;52.550;13.148;2022-09-09T00:39:44;12.40;99.90
6210;DHT22;3138;52.550;13.148;2022-09-09T00:42:14;12.20;99.90
6210;DHT22;3138;52.550;13.148;2022-09-09T00:44:52;12.30;99.90
6210;DHT22;3138;52.550;13.148;2022-09-09T00:47:43;12.20;99.90
6210;DHT22;3138;52.550;13.148;2022-09-09T00:50:22;12.20;99.90
6210;DHT22;3138;52.550;13.148;2022-09-09T00:53:02;12.20;99.90
6210;DHT22;3138;52.550;13.148;2022-09-09T00:55:39;12.30;99.90
6210;DHT22;3138;52.550;13.148;2022-09-09T00:58:08;12.40;99.90
6210;DHT22;3138;52.550;13.148;2022-09-09T01:00:40;12.50;99.90
6210;DHT22;3138;52.550;13.148;2022-09-09T01:03:20;12.60;99.90
6210;DHT22;3138;52.550;13.148;2022-09-09T01:05:58;12.70;99.90
6210;DHT22;3138;52.550;13.148;2022-09-09T01:08:39;12.70;99.90
6210;DHT22;3138;52.550;13.148;2022-09-09T01:11:14;12.80;99.90
6210;DHT22;3138;52.550;13.148;2022-09-09T01:13:45;12.70;99.90
6210;DHT22;3138;52.550;13.148;2022-09-09T01:16:14;12.80;99.90
6210;DHT22;3138;52.550;13.148;2022-09-09T01:18:44;12.80;99.90
6210;DHT22;3138;52.550;13.148;2022-09-09T01:21:19;12.80;99.90
6210;DHT22;3138;52.550;13.148;2022-09-09T01:24:04;12.90;99.90
6210;DHT22;3138;52.550;13.148;2022-09-09T01:26:37;13.00;99.90
6210;DHT22;3138;52.550;13.148;2022-09-09T01:29:07;13.00;99.90
6210;DHT22;3138;52.550;13.148;2022-09-09T01:31:37;13.00;99.90
6210;DHT22;3138;52.550;13.148;2022-09-09T01:34:10;13.00;99.90
6210;DHT22;3138;52.550;13.148;2022-09-09T01:36:42;13.00;99.90
6210;DHT22;3138;52.550;13.148;2022-09-09T01:39:11;13.00;99.90
6210;DHT22;3138;52.550;13.148;2022-09-09T01:41:40;13.00;99.90
6210;DHT22;3138;52.550;13.148;2022-09-09T01:44:07;13.10;99.90
6210;DHT22;3138;52.550;13.148;2022-09-09T01:46:34;13.00;99.90
6210;DHT22;3138;52.550;13.148;2022-09-09T01:49:11;13.00;99.90
6210;DHT22;3138;52.550;13.148;2022-09-09T01:51:39;13.00;99.90
6210;DHT22;3138;52.550;13.148;2022-09-09T01:54:07;13.00;99.90
6210;DHT22;3138;52.550;13.148;2022-09-09T01:56:43;12.80;99.90
6210;DHT22;3138;52.550;13.148;2022-09-09T01:59:27;12.90;99.90
6210;DHT22;3138;52.550;13.148;2022-09-09T02:02:08;12.90;99.90
6210;DHT22;3138;52.550;13.148;2022-09-09T02:04:40;12.80;99.90
6210;DHT22;3138;52.550;13.148;2022-09-09T02:07:21;12.80;99.90
6210;DHT22;3138;52.550;13.148;2022-09-09T02:09:57;12.70;99.90
6210;DHT22;3138;52.550;13.148;2022-09-09T02:12:28;12.70;99.90
6210;DHT22;3138;52.550;13.148;2022-09-09T02:15:00;12.60;99.90
6210;DHT22;3138;52.550;13.148;2022-09-09T02:17:33;12.70;99.90
6210;DHT22;3138;52.550;13.148;2022-09-09T02:20:04;12.80;99.90
6210;DHT22;3138;52.550;13.148;2022-09-09T02:22:33;12.80;99.90
6210;DHT22;3138;52.550;13.148;2022-09-09T02:25:00;12.80;99.90
6210;DHT22;3138;52.550;13.148;2022-09-09T02:27:30;12.80;99.90
6210;DHT22;3138;52.550;13.148;2022-09-09T02:29:57;12.80;99.90
6210;DHT22;3138;52.550;13.148;2022-09-09T02:32:25;12.70;99.90
6210;DHT22;3138;52.550;13.148;2022-09-09T02:34:55;12.70;99.90
6210;DHT22;3138;52.550;13.148;2022-09-09T02:37:26;12.60;99.90
6210;DHT22;3138;52.550;13.148;2022-09-09T02:39:54;12.60;99.90
6210;DHT22;3138;52.550;13.148;2022-09-09T02:42:21;12.60;99.90
6210;DHT22;3138;52.550;13.148;2022-09-09T02:44:50;12.60;99.90
6210;DHT22;3138;52.550;13.148;2022-09-09T02:47:24;12.60;99.90
6210;DHT22;3138;52.550;13.148;2022-09-09T02:50:02;12.70;99.90
6210;DHT22;3138;52.550;13.148;2022-09-09T02:52:35;12.60;99.90
6210;DHT22;3138;52.550;13.148;2022-09-09T02:55:09;12.50;99.90
6210;DHT22;3138;52.550;13.148;2022-09-09T02:57:37;12.40;99.90
6210;DHT22;3138;52.550;13.148;2022-09-09T03:00:07;12.30;99.90
6210;DHT22;3138;52.550;13.148;2022-09-09T03:02:34;12.40;99.90
6210;DHT22;3138;52.550;13.148;2022-09-09T03:05:00;12.30;99.90
6210;DHT22;3138;52.550;13.148;2022-09-09T03:07:30;12.50;99.90
6210;DHT22;3138;52.550;13.148;2022-09-09T03:09:56;12.50;99.90
6210;DHT22;3138;52.550;13.148;2022-09-09T03:12:23;12.30;99.90
6210;DHT22;3138;52.550;13.148;2022-09-09T03:14:50;12.20;99.90
6210;DHT22;3138;52.550;13.148;2022-09-09T03:17:18;12.10;99.90
6210;DHT22;3138;52.550;13.148;2022-09-09T03:19:45;12.10;99.90
6210;DHT22;3138;52.550;13.148;2022-09-09T03:22:12;11.90;99.90
6210;DHT22;3138;52.550;13.148;2022-09-09T03:24:39;12.00;99.90
6210;DHT22;3138;52.550;13.148;2022-09-09T03:27:06;12.00;99.90
6210;DHT22;3138;52.550;13.148;2022-09-09T03:29:33;11.90;99.90
6210;DHT22;3138;52.550;13.148;2022-09-09T03:32:00;11.90;99.90
6210;DHT22;3138;52.550;13.148;2022-09-09T03:34:29;11.70;99.90
6210;DHT22;3138;52.550;13.148;2022-09-09T03:36:57;11.60;99.90
6210;DHT22;3138;52.550;13.148;2022-09-09T03:39:24;11.70;99.90
6210;DHT22;3138;52.550;13.148;2022-09-09T03:41:51;11.60;99.90
6210;DHT22;3138;52.550;13.148;2022-09-09T03:44:17;11.60;99.90
6210;DHT22;3138;52.550;13.148;2022-09-09T03:46:44;11.70;99.90
6210;DHT22;3138;52.550;13.148;2022-09-09T03:49:11;11.80;99.90
6210;DHT22;3138;52.550;13.148;2022-09-09T03:51:39;12.00;99.90
6210;DHT22;3138;52.550;13.148;2022-09-09T03:54:06;12.00;99.90
6210;DHT22;3138;52.550;13.148;2022-09-09T03:56:44;11.90;99.90
6210;DHT22;3138;52.550;13.148;2022-09-09T03:59:11;11.80;99.90
6210;DHT22;3138;52.550;13.148;2022-09-09T04:01:39;11.70;99.90
6210;DHT22;3138;52.550;13.148;2022-09-09T04:04:06;11.70;99.90
6210;DHT22;3138;52.550;13.148;2022-09-09T04:06:34;11.80;99.90
6210;DHT22;3138;52.550;13.148;2022-09-09T04:09:02;11.80;99.90
6210;DHT22;3138;52.550;13.148;2022-09-09T04:11:32;11.80;99.90
6210;DHT22;3138;52.550;13.148;2022-09-09T04:13:59;11.70;99.90
6210;DHT22;3138;52.550;13.148;2022-09-09T04:16:26;11.60;99.90
6210;DHT22;3138;52.550;13.148;2022-09-09T04:18:53;11.70;99.90
6210;DHT22;3138;52.550;13.148;2022-09-09T04:21:19;11.50;99.90
6210;DHT22;3138;52.550;13.148;2022-09-09T04:23:46;11.50;99.90
6210;DHT22;3138;52.550;13.148;2022-09-09T04:26:14;11.40;99.90
6210;DHT22;3138;52.550;13.148;2022-09-09T04:28:41;11.30;99.90
6210;DHT22;3138;52.550;13.148;2022-09-09T04:31:10;11.30;99.90
6210;DHT22;3138;52.550;13.148;2022-09-09T04:33:36;11.30;99.90
6210;DHT22;3138;52.550;13.148;2022-09-09T04:36:05;11.30;99.90
6210;DHT22;3138;52.550;13.148;2022-09-09T04:38:32;11.30;99.90
6210;DHT22;3138;52.550;13.148;2022-09-09T04:40:58;11.30;99.90
6210;DHT22;3138;52.550;13.148;2022-09-09T04:43:26;11.30;99.90
6210;DHT22;3138;52.550;13.148;2022-09-09T04:45:56;11.30;99.90
6210;DHT22;3138;52.550;13.148;2022-09-09T04:48:23;11.40;99.90
6210;DHT22;3138;52.550;13.148;2022-09-09T04:50:55;11.30;99.90
6210;DHT22;3138;52.550;13.148;2022-09-09T04:53:22;11.50;99.90
6210;DHT22;3138;52.550;13.148;2022-09-09T04:55:49;11.40;99.90
6210;DHT22;3138;52.550;13.148;2022-09-09T04:58:16;11.40;99.90
6210;DHT22;3138;52.550;13.148;2022-09-09T05:01:01;11.60;99.90
6210;DHT22;3138;52.550;13.148;2022-09-09T05:03:28;11.60;99.90
6210;DHT22;3138;52.550;13.148;2022-09-09T05:06:02;11.80;99.90
6210;DHT22;3138;52.550;13.148;2022-09-09T05:08:29;11.80;99.90
6210;DHT22;3138;52.550;13.148;2022-09-09T05:10:56;11.80;99.90
6210;DHT22;3138;52.550;13.148;2022-09-09T05:13:23;11.80;99.90
6210;DHT22;3138;52.550;13.148;2022-09-09T05:15:53;12.10;99.90
6210;DHT22;3138;52.550;13.148;2022-09-09T05:18:20;12.20;99.90
6210;DHT22;3138;52.550;13.148;2022-09-09T05:20:47;12.40;99.90
6210;DHT22;3138;52.550;13.148;2022-09-09T05:23:14;12.50;99.90
6210;DHT22;3138;52.550;13.148;2022-09-09T05:25:41;12.70;99.90
6210;DHT22;3138;52.550;13.148;2022-09-09T05:28:08;12.90;99.90
6210;DHT22;3138;52.550;13.148;2022-09-09T05:30:36;13.10;99.90
6210;DHT22;3138;52.550;13.148;2022-09-09T05:33:04;13.10;99.90
6210;DHT22;3138;52.550;13.148;2022-09-09T05:35:32;13.30;99.90
6210;DHT22;3138;52.550;13.148;2022-09-09T05:37:59;13.40;99.90
6210;DHT22;3138;52.550;13.148;2022-09-09T05:40:27;13.60;99.90
6210;DHT22;3138;52.550;13.148;2022-09-09T05:42:53;13.80;99.90
6210;DHT22;3138;52.550;13.148;2022-09-09T05:45:20;13.80;99.90
6210;DHT22;3138;52.550;13.148;2022-09-09T05:47:51;13.90;99.90
6210;DHT22;3138;52.550;13.148;2022-09-09T05:50:20;14.00;99.90
6210;DHT22;3138;52.550;13.148;2022-09-09T05:52:47;14.10;99.90
6210;DHT22;3138;52.550;13.148;2022-09-09T05:55:15;14.20;99.90
6210;DHT22;3138;52.550;13.148;2022-09-09T05:57:41;14.10;99.90
6210;DHT22;3138;52.550;13.148;2022-09-09T06:00:09;14.10;99.90
6210;DHT22;3138;52.550;13.148;2022-09-09T06:02:37;14.20;99.90
6210;DHT22;3138;52.550;13.148;2022-09-09T06:05:05;14.20;99.90
6210;DHT22;3138;52.550;13.148;2022-09-09T06:07:33;14.30;99.90
6210;DHT22;3138;52.550;13.148;2022-09-09T06:10:01;14.50;99.90
6210;DHT22;3138;52.550;13.148;2022-09-09T06:12:27;14.90;99.90
6210;DHT22;3138;52.550;13.148;2022-09-09T06:14:54;15.20;99.90
6210;DHT22;3138;52.550;13.148;2022-09-09T06:17:21;15.40;99.90
6210;DHT22;3138;52.550;13.148;2022-09-09T06:19:47;15.60;99.90
6210;DHT22;3138;52.550;13.148;2022-09-09T06:22:14;15.60;99.90
6210;DHT22;3138;52.550;13.148;2022-09-09T06:24:42;15.80;99.90
6210;DHT22;3138;52.550;13.148;2022-09-09T06:27:10;16.00;99.90
6210;DHT22;3138;52.550;13.148;2022-09-09T06:29:39;16.30;99.90
6210;DHT22;3138;52.550;13.148;2022-09-09T06:32:05;16.40;99.90
6210;DHT22;3138;52.550;13.148;2022-09-09T06:34:34;16.50;99.90
6210;DHT22;3138;52.550;13.148;2022-09-09T06:37:00;16.60;99.90
6210;DHT22;3138;52.550;13.148;2022-09-09T06:39:27;16.40;99.90
6210;DHT22;3138;52.550;13.148;2022-09-09T06:41:55;16.30;99.90
6210;DHT22;3138;52.550;13.148;2022-09-09T06:44:24;16.40;99.90
6210;DHT22;3138;52.550;13.148;2022-09-09T06:46:52;16.30;99.90
6210;DHT22;3138;52.550;13.148;2022-09-09T06:49:18;16.20;99.90
6210;DHT22;3138;52.550;13.148;2022-09-09T06:51:45;16.10;99.90
6210;DHT22;3138;52.550;13.148;2022-09-09T06:54:12;16.00;99.90
6210;DHT22;3138;52.550;13.148;2022-09-09T06:56:40;15.90;99.90
6210;DHT22;3138;52.550;13.148;2022-09-09T06:59:10;15.90;99.90
6210;DHT22;3138;52.550;13.148;2022-09-09T07:01:38;15.90;99.90
6210;DHT22;3138;52.550;13.148;2022-09-09T07:04:06;16.00;99.90
6210;DHT22;3138;52.550;13.148;2022-09-09T07:06:34;16.40;99.90
6210;DHT22;3138;52.550;13.148;2022-09-09T07:09:04;16.90;99.90
6210;DHT22;3138;52.550;13.148;2022-09-09T07:11:32;17.10;99.90
6210;DHT22;3138;52.550;13.148;2022-09-09T07:14:00;16.90;99.90
6210;DHT22;3138;52.550;13.148;2022-09-09T07:16:29;16.90;99.90
6210;DHT22;3138;52.550;13.148;2022-09-09T07:18:57;16.90;99.90
6210;DHT22;3138;52.550;13.148;2022-09-09T07:21:25;16.80;99.90
6210;DHT22;3138;52.550;13.148;2022-09-09T07:23:52;17.00;99.90
6210;DHT22;3138;52.550;13.148;2022-09-09T07:26:21;17.10;99.90
6210;DHT22;3138;52.550;13.148;2022-09-09T07:28:48;17.10;99.90
6210;DHT22;3138;52.550;13.148;2022-09-09T07:31:16;17.20;99.90
6210;DHT22;3138;52.550;13.148;2022-09-09T07:33:45;17.30;99.90
6210;DHT22;3138;52.550;13.148;2022-09-09T07:36:15;17.30;99.90
6210;DHT22;3138;52.550;13.148;2022-09-09T07:38:44;17.30;99.90
6210;DHT22;3138;52.550;13.148;2022-09-09T07:41:14;17.30;99.90
6210;DHT22;3138;52.550;13.148;2022-09-09T07:43:42;17.40;99.90
6210;DHT22;3138;52.550;13.148;2022-09-09T07:46:11;17.60;99.90
6210;DHT22;3138;52.550;13.148;2022-09-09T07:48:38;17.60;99.90
6210;DHT22;3138;52.550;13.148;2022-09-09T07:51:10;17.70;99.90
6210;DHT22;3138;52.550;13.148;2022-09-09T07:53:37;18.10;99.90
6210;DHT22;3138;52.550;13.148;2022-09-09T07:56:06;18.10;99.90
6210;DHT22;3138;52.550;13.148;2022-09-09T07:58:34;18.10;99.90
6210;DHT22;3138;52.550;13.148;2022-09-09T08:01:06;18.20;99.90
6210;DHT22;3138;52.550;13.148;2022-09-09T08:03:33;18.20;99.90
6210;DHT22;3138;52.550;13.148;2022-09-09T08:06:01;18.50;99.90
6210;DHT22;3138;52.550;13.148;2022-09-09T08:08:30;18.90;99.90
6210;DHT22;3138;52.550;13.148;2022-09-09T08:11:04;19.20;99.90
6210;DHT22;3138;52.550;13.148;2022-09-09T08:13:33;19.30;99.90
6210;DHT22;3138;52.550;13.148;2022-09-09T08:16:07;19.30;99.90
6210;DHT22;3138;52.550;13.148;2022-09-09T08:18:35;19.50;99.90
6210;DHT22;3138;52.550;13.148;2022-09-09T08:21:06;19.60;99.90
6210;DHT22;3138;52.550;13.148;2022-09-09T08:23:35;19.80;99.90
6210;DHT22;3138;52.550;13.148;2022-09-09T08:26:07;19.90;99.90
6210;DHT22;3138;52.550;13.148;2022-09-09T08:28:35;19.90;99.90
6210;DHT22;3138;52.550;13.148;2022-09-09T08:31:10;19.70;99.90
6210;DHT22;3138;52.550;13.148;2022-09-09T08:33:37;20.00;99.90
6210;DHT22;3138;52.550;13.148;2022-09-09T08:36:05;20.30;99.90
6210;DHT22;3138;52.550;13.148;2022-09-09T08:38:32;20.30;99.90
6210;DHT22;3138;52.550;13.148;2022-09-09T08:41:09;20.10;99.90
6210;DHT22;3138;52.550;13.148;2022-09-09T08:43:41;19.80;99.90
6210;DHT22;3138;52.550;13.148;2022-09-09T08:46:14;19.70;99.90
6210;DHT22;3138;52.550;13.148;2022-09-09T08:48:50;19.70;99.90
6210;DHT22;3138;52.550;13.148;2022-09-09T08:51:24;19.60;99.90
6210;DHT22;3138;52.550;13.148;2022-09-09T08:53:52;19.30;99.90
6210;DHT22;3138;52.550;13.148;2022-09-09T08:56:24;19.30;99.90
6210;DHT22;3138;52.550;13.148;2022-09-09T08:58:52;19.30;99.90
6210;DHT22;3138;52.550;13.148;2022-09-09T09:01:44;19.20;99.90
6210;DHT22;3138;52.550;13.148;2022-09-09T09:04:30;19.20;99.90
6210;DHT22;3138;52.550;13.148;2022-09-09T09:07:06;19.30;99.90
6210;DHT22;3138;52.550;13.148;2022-09-09T09:09:40;19.30;99.90
6210;DHT22;3138;52.550;13.148;2022-09-09T09:12:16;19.40;99.90
6210;DHT22;3138;52.550;13.148;2022-09-09T09:14:46;19.50;99.90
6210;DHT22;3138;52.550;13.148;2022-09-09T09:17:15;19.70;99.90
6210;DHT22;3138;52.550;13.148;2022-09-09T09:19:43;19.60;99.90
6210;DHT22;3138;52.550;13.148;2022-09-09T09:22:17;19.60;99.90
6210;DHT22;3138;52.550;13.148;2022-09-09T09:24:51;19.70;99.90
6210;DHT22;3138;52.550;13.148;2022-09-09T09:27:25;19.90;99.90
6210;DHT22;3138;52.550;13.148;2022-09-09T09:29:56;20.30;99.90
6210;DHT22;3138;52.550;13.148;2022-09-09T09:32:24;20.70;99.90
6210;DHT22;3138;52.550;13.148;2022-09-09T09:34:55;21.40;99.90
6210;DHT22;3138;52.550;13.148;2022-09-09T09:37:27;21.60;99.90
6210;DHT22;3138;52.550;13.148;2022-09-09T09:39:54;21.40;99.90
6210;DHT22;3138;52.550;13.148;2022-09-09T09:42:22;21.60;99.90
6210;DHT22;3138;52.550;13.148;2022-09-09T09:44:49;21.60;99.90
6210;DHT22;3138;52.550;13.148;2022-09-09T09:47:17;21.60;99.90
6210;DHT22;3138;52.550;13.148;2022-09-09T09:49:54;21.70;99.90
6210;DHT22;3138;52.550;13.148;2022-09-09T09:52:23;22.10;99.90
6210;DHT22;3138;52.550;13.148;2022-09-09T09:54:51;21.80;99.90
6210;DHT22;3138;52.550;13.148;2022-09-09T09:57:24;22.20;99.90
6210;DHT22;3138;52.550;13.148;2022-09-09T10:00:01;21.80;99.90
6210;DHT22;3138;52.550;13.148;2022-09-09T10:02:37;22.30;99.90
6210;DHT22;3138;52.550;13.148;2022-09-09T10:05:08;22.70;99.90
6210;DHT22;3138;52.550;13.148;2022-09-09T10:07:38;22.60;99.90
6210;DHT22;3138;52.550;13.148;2022-09-09T10:10:08;22.70;99.90
6210;DHT22;3138;52.550;13.148;2022-09-09T10:12:46;22.50;99.90
6210;DHT22;3138;52.550;13.148;2022-09-09T10:15:26;22.90;99.90
6210;DHT22;3138;52.550;13.148;2022-09-09T10:18:04;22.80;99.90
6210;DHT22;3138;52.550;13.148;2022-09-09T10:20:39;22.80;99.90
6210;DHT22;3138;52.550;13.148;2022-09-09T10:23:19;22.80;99.90
6210;DHT22;3138;52.550;13.148;2022-09-09T10:26:12;22.70;99.90
6210;DHT22;3138;52.550;13.148;2022-09-09T10:28:58;22.70;99.90
6210;DHT22;3138;52.550;13.148;2022-09-09T10:31:37;22.60;99.90
6210;DHT22;3138;52.550;13.148;2022-09-09T10:34:15;22.90;99.90
6210;DHT22;3138;52.550;13.148;2022-09-09T10:36:47;23.00;99.90
6210;DHT22;3138;52.550;13.148;2022-09-09T10:39:30;23.30;99.90
6210;DHT22;3138;52.550;13.148;2022-09-09T10:42:03;23.00;99.90
6210;DHT22;3138;52.550;13.148;2022-09-09T10:44:40;22.40;99.90
6210;DHT22;3138;52.550;13.148;2022-09-09T10:47:21;22.70;99.90
6210;DHT22;3138;52.550;13.148;2022-09-09T10:50:08;23.00;99.90
6210;DHT22;3138;52.550;13.148;2022-09-09T10:52:43;23.50;99.90
6210;DHT22;3138;52.550;13.148;2022-09-09T10:55:15;23.50;99.90
6210;DHT22;3138;52.550;13.148;2022-09-09T10:57:45;23.20;99.90
6210;DHT22;3138;52.550;13.148;2022-09-09T11:00:17;23.10;99.90
6210;DHT22;3138;52.550;13.148;2022-09-09T11:02:48;22.90;98.60
6210;DHT22;3138;52.550;13.148;2022-09-09T11:05:18;22.80;98.20
6210;DHT22;3138;52.550;13.148;2022-09-09T11:07:49;23.20;99.50
6210;DHT22;3138;52.550;13.148;2022-09-09T11:10:23;23.70;99.40
6210;DHT22;3138;52.550;13.148;2022-09-09T11:12:53;23.60;97.00
6210;DHT22;3138;52.550;13.148;2022-09-09T11:15:29;23.60;97.40
6210;DHT22;3138;52.550;13.148;2022-09-09T11:18:01;23.30;96.40
6210;DHT22;3138;52.550;13.148;2022-09-09T11:20:30;23.60;96.80
6210;DHT22;3138;52.550;13.148;2022-09-09T11:23:01;23.70;95.60
6210;DHT22;3138;52.550;13.148;2022-09-09T11:25:32;23.60;96.80
6210;DHT22;3138;52.550;13.148;2022-09-09T11:28:18;23.20;97.10
6210;DHT22;3138;52.550;13.148;2022-09-09T11:30:59;22.80;98.40
6210;DHT22;3138;52.550;13.148;2022-09-09T11:36:56;22.60;98.70
6210;DHT22;3138;52.550;13.148;2022-09-09T11:39:38;23.40;97.70
6210;DHT22;3138;52.550;13.148;2022-09-09T11:42:17;23.80;94.70
6210;DHT22;3138;52.550;13.148;2022-09-09T11:44:45;23.40;96.20
6210;DHT22;3138;52.550;13.148;2022-09-09T11:47:25;23.20;96.60
6210;DHT22;3138;52.550;13.148;2022-09-09T11:49:55;23.30;95.60
6210;DHT22;3138;52.550;13.148;2022-09-09T11:52:24;23.60;95.70
6210;DHT22;3138;52.550;13.148;2022-09-09T11:54:55;23.80;95.40
6210;DHT22;3138;52.550;13.148;2022-09-09T11:57:25;23.70;95.60
6210;DHT22;3138;52.550;13.148;2022-09-09T11:59:58;23.90;93.60
6210;DHT22;3138;52.550;13.148;2022-09-09T12:02:27;23.50;93.60
6210;DHT22;3138;52.550;13.148;2022-09-09T12:04:59;23.20;92.90
6210;DHT22;3138;52.550;13.148;2022-09-09T12:07:33;23.10;93.80
6210;DHT22;3138;52.550;13.148;2022-09-09T12:10:05;23.20;94.60
6210;DHT22;3138;52.550;13.148;2022-09-09T12:12:34;23.90;91.90
6210;DHT22;3138;52.550;13.148;2022-09-09T12:15:23;24.40;92.20
6210;DHT22;3138;52.550;13.148;2022-09-09T12:17:56;24.40;90.60
6210;DHT22;3138;52.550;13.148;2022-09-09T12:20:30;24.40;90.40
6210;DHT22;3138;52.550;13.148;2022-09-09T12:23:14;24.40;88.90
6210;DHT22;3138;52.550;13.148;2022-09-09T12:25:55;24.50;91.30
6210;DHT22;3138;52.550;13.148;2022-09-09T12:28:39;24.50;89.10
6210;DHT22;3138;52.550;13.148;2022-09-09T12:31:12;24.90;90.00
6210;DHT22;3138;52.550;13.148;2022-09-09T12:33:45;24.90;84.80
6210;DHT22;3138;52.550;13.148;2022-09-09T12:36:16;24.90;84.60
6210;DHT22;3138;52.550;13.148;2022-09-09T12:38:45;24.30;85.80
6210;DHT22;3138;52.550;13.148;2022-09-09T12:41:20;24.00;85.90
6210;DHT22;3138;52.550;13.148;2022-09-09T12:43:48;23.80;90.00
6210;DHT22;3138;52.550;13.148;2022-09-09T12:46:26;23.80;90.50
6210;DHT22;3138;52.550;13.148;2022-09-09T12:48:58;24.20;87.60
6210;DHT22;3138;52.550;13.148;2022-09-09T12:51:28;24.50;86.10
6210;DHT22;3138;52.550;13.148;2022-09-09T12:53:56;24.00;84.30
6210;DHT22;3138;52.550;13.148;2022-09-09T12:56:24;23.50;85.70
6210;DHT22;3138;52.550;13.148;2022-09-09T12:58:54;23.40;89.40
6210;DHT22;3138;52.550;13.148;2022-09-09T13:01:24;23.10;89.10
6210;DHT22;3138;52.550;13.148;2022-09-09T13:03:51;23.10;88.20
6210;DHT22;3138;52.550;13.148;2022-09-09T13:06:24;23.00;86.70
6210;DHT22;3138;52.550;13.148;2022-09-09T13:08:53;22.90;88.40
6210;DHT22;3138;52.550;13.148;2022-09-09T13:11:22;23.00;88.10
6210;DHT22;3138;52.550;13.148;2022-09-09T13:13:52;22.90;89.00
6210;DHT22;3138;52.550;13.148;2022-09-09T13:16:21;22.90;89.20
6210;DHT22;3138;52.550;13.148;2022-09-09T13:18:49;22.90;86.50
6210;DHT22;3138;52.550;13.148;2022-09-09T13:21:17;22.70;88.00
6210;DHT22;3138;52.550;13.148;2022-09-09T13:23:50;22.60;86.30
6210;DHT22;3138;52.550;13.148;2022-09-09T13:26:22;22.50;89.20
6210;DHT22;3138;52.550;13.148;2022-09-09T13:28:50;22.30;90.90
6210;DHT22;3138;52.550;13.148;2022-09-09T13:31:22;22.10;91.80
6210;DHT22;3138;52.550;13.148;2022-09-09T13:33:50;22.10;92.40
6210;DHT22;3138;52.550;13.148;2022-09-09T13:36:27;22.10;92.30
6210;DHT22;3138;52.550;13.148;2022-09-09T13:38:57;22.10;93.20
6210;DHT22;3138;52.550;13.148;2022-09-09T13:41:28;22.00;94.60
6210;DHT22;3138;52.550;13.148;2022-09-09T13:43:57;22.00;94.10
6210;DHT22;3138;52.550;13.148;2022-09-09T13:46:31;22.00;94.00
6210;DHT22;3138;52.550;13.148;2022-09-09T13:49:01;22.00;95.20
6210;DHT22;3138;52.550;13.148;2022-09-09T13:51:34;22.00;94.80
6210;DHT22;3138;52.550;13.148;2022-09-09T13:54:04;22.10;95.70
6210;DHT22;3138;52.550;13.148;2022-09-09T13:56:32;22.10;95.20
6210;DHT22;3138;52.550;13.148;2022-09-09T13:58:58;22.20;94.50
6210;DHT22;3138;52.550;13.148;2022-09-09T14:01:26;22.20;95.40
6210;DHT22;3138;52.550;13.148;2022-09-09T14:03:53;22.10;95.40
6210;DHT22;3138;52.550;13.148;2022-09-09T14:06:20;21.90;95.10
6210;DHT22;3138;52.550;13.148;2022-09-09T14:08:47;21.90;94.30
6210;DHT22;3138;52.550;13.148;2022-09-09T14:11:17;21.90;93.20
6210;DHT22;3138;52.550;13.148;2022-09-09T14:13:44;22.00;94.50
6210;DHT22;3138;52.550;13.148;2022-09-09T14:16:13;22.10;94.20
6210;DHT22;3138;52.550;13.148;2022-09-09T14:18:40;22.30;93.20
6210;DHT22;3138;52.550;13.148;2022-09-09T14:21:07;22.50;92.90
6210;DHT22;3138;52.550;13.148;2022-09-09T14:23:34;22.90;94.10
6210;DHT22;3138;52.550;13.148;2022-09-09T14:26:01;23.10;92.10
6210;DHT22;3138;52.550;13.148;2022-09-09T14:28:29;23.30;92.40
6210;DHT22;3138;52.550;13.148;2022-09-09T14:30:59;23.50;91.10
6210;DHT22;3138;52.550;13.148;2022-09-09T14:33:25;23.70;90.50
6210;DHT22;3138;52.550;13.148;2022-09-09T14:35:56;23.60;91.00
6210;DHT22;3138;52.550;13.148;2022-09-09T14:38:22;23.10;80.70
6210;DHT22;3138;52.550;13.148;2022-09-09T14:40:49;23.00;80.50
6210;DHT22;3138;52.550;13.148;2022-09-09T14:43:16;22.90;80.90
6210;DHT22;3138;52.550;13.148;2022-09-09T14:45:44;22.90;84.10
6210;DHT22;3138;52.550;13.148;2022-09-09T14:48:10;22.60;82.10
6210;DHT22;3138;52.550;13.148;2022-09-09T14:50:37;22.50;84.90
6210;DHT22;3138;52.550;13.148;2022-09-09T14:53:05;22.30;83.10
6210;DHT22;3138;52.550;13.148;2022-09-09T14:55:32;22.30;84.80
6210;DHT22;3138;52.550;13.148;2022-09-09T14:57:59;22.20;88.00
6210;DHT22;3138;52.550;13.148;2022-09-09T15:00:26;22.20;87.50
6210;DHT22;3138;52.550;13.148;2022-09-09T15:02:54;22.20;87.40
6210;DHT22;3138;52.550;13.148;2022-09-09T15:05:22;22.20;88.30
6210;DHT22;3138;52.550;13.148;2022-09-09T15:07:49;22.30;88.20
6210;DHT22;3138;52.550;13.148;2022-09-09T15:10:17;22.20;91.00
6210;DHT22;3138;52.550;13.148;2022-09-09T15:12:43;22.20;90.00
6210;DHT22;3138;52.550;13.148;2022-09-09T15:15:10;22.20;89.60
6210;DHT22;3138;52.550;13.148;2022-09-09T15:17:38;22.30;88.90
6210;DHT22;3138;52.550;13.148;2022-09-09T15:20:07;22.20;88.90
6210;DHT22;3138;52.550;13.148;2022-09-09T15:22:34;22.10;87.30
6210;DHT22;3138;52.550;13.148;2022-09-09T15:25:03;22.00;87.50
6210;DHT22;3138;52.550;13.148;2022-09-09T15:27:31;22.00;90.40
6210;DHT22;3138;52.550;13.148;2022-09-09T15:29:57;21.90;90.70
6210;DHT22;3138;52.550;13.148;2022-09-09T15:32:26;21.80;91.00
6210;DHT22;3138;52.550;13.148;2022-09-09T15:34:52;21.70;90.80
6210;DHT22;3138;52.550;13.148;2022-09-09T15:37:20;21.60;91.40
6210;DHT22;3138;52.550;13.148;2022-09-09T15:39:47;21.50;91.30
6210;DHT22;3138;52.550;13.148;2022-09-09T15:42:14;21.40;93.70
6210;DHT22;3138;52.550;13.148;2022-09-09T15:44:41;21.20;95.90
6210;DHT22;3138;52.550;13.148;2022-09-09T15:47:10;21.00;97.10
6210;DHT22;3138;52.550;13.148;2022-09-09T15:49:38;20.90;99.90
6210;DHT22;3138;52.550;13.148;2022-09-09T15:52:05;20.80;99.90
6210;DHT22;3138;52.550;13.148;2022-09-09T15:54:34;20.70;99.90
6210;DHT22;3138;52.550;13.148;2022-09-09T15:57:03;20.70;98.50
6210;DHT22;3138;52.550;13.148;2022-09-09T15:59:31;20.60;99.80
6210;DHT22;3138;52.550;13.148;2022-09-09T16:01:59;20.50;99.80
6210;DHT22;3138;52.550;13.148;2022-09-09T16:04:27;20.50;99.90
6210;DHT22;3138;52.550;13.148;2022-09-09T16:06:55;20.50;99.90
6210;DHT22;3138;52.550;13.148;2022-09-09T16:09:24;20.40;99.90